Magdalen — WDJ7547 — position and weather

sailwx.info

Track history (hours):
 
Tides and Currents Weather Stations Pressure Air Temp Water Temp Dewpoint Dewpoint Depression Visibility Wind Speed Wind Dir Waves Ship Positions

Magdalen

Owner: Weeks Marine, Inc., Cranford, NJ. More information available from US FCC via Universal Licensing System and Coast Guard Vessel Documentation Center.

Last reported at 2018-Feb-02 01:43 UTC. Time now 2018-Feb-25 18:04 UTC.
Position N 36°51' W 075°51'.
Warning: this ship's position is 23 days out of date.

Length 83 m; draft 4.7 m.

Type: Dredging. MMSI: 369305000.

Date/timePositionNaut miles runAvg speedWind from/ knotsBaromVisibWave heightAir tempDewpointWater temp
2018-Feb-02 01:43N 36°51' W 075°51'2 9.4
2018-Feb-02 01:29N 36°52' W 075°53'5 9.7
2018-Feb-02 00:56N 36°56' W 075°58'510.7
2018-Feb-02 00:30N 36°57' W 076°03'14 8.4
2018-Feb-01 22:50N 36°56' W 076°20'5 6.3
2018-Feb-01 22:00N 36°51' W 076°18'3 5.0
2018-Feb-01 21:30N 36°48' W 076°17'1 0.3
2018-Feb-01 19:29N 36°48' W 076°17'0 0.0
2018-Feb-01 18:59N 36°48' W 076°17'0 0.0
2018-Feb-01 18:29N 36°48' W 076°17'0 0.0
2018-Feb-01 17:59N 36°48' W 076°17'0 0.0
2018-Feb-01 17:29N 36°48' W 076°17'0 0.0
2018-Feb-01 16:59N 36°48' W 076°17'0 0.0
2018-Feb-01 16:29N 36°48' W 076°17'0 0.0
2018-Feb-01 15:59N 36°48' W 076°17'0 0.0
2018-Feb-01 15:29N 36°48' W 076°17'0 0.0
2018-Feb-01 14:59N 36°48' W 076°17'0 0.0
2018-Feb-01 13:29N 36°48' W 076°17'0 0.0
2018-Feb-01 12:59N 36°48' W 076°17'0 0.0
2018-Feb-01 12:29N 36°48' W 076°17'0 0.0
2018-Feb-01 11:59N 36°48' W 076°17'0 0.0
2018-Feb-01 10:59N 36°48' W 076°17'0 0.0
2018-Feb-01 10:29N 36°48' W 076°17'0 0.0
2018-Feb-01 09:59N 36°48' W 076°17'0 0.0
2018-Feb-01 09:29N 36°48' W 076°17'0 0.0
2018-Feb-01 08:59N 36°48' W 076°17'0 0.0
2018-Feb-01 08:29N 36°48' W 076°17'0 0.0
2018-Feb-01 07:29N 36°48' W 076°17'0 0.0
2018-Feb-01 06:59N 36°48' W 076°17'0 0.0
2018-Feb-01 06:29N 36°48' W 076°17'0 0.0
2018-Feb-01 05:59N 36°48' W 076°17'0 0.0
2018-Feb-01 05:29N 36°48' W 076°17'0 0.0
2018-Feb-01 04:56N 36°48' W 076°17'0 0.0
2018-Feb-01 04:29N 36°48' W 076°17'0 0.0
2018-Feb-01 03:59N 36°48' W 076°17'0 0.0
2018-Feb-01 02:59N 36°48' W 076°17'0 0.0
2018-Feb-01 02:29N 36°48' W 076°17'0 0.0
2018-Feb-01 01:59N 36°48' W 076°17'0 0.0
2018-Feb-01 01:29N 36°48' W 076°17'0 0.0
2018-Feb-01 00:59N 36°48' W 076°17'0 0.0
2018-Feb-01 00:29N 36°48' W 076°17'0 0.0
2018-Jan-31 23:59N 36°48' W 076°17'0 0.0
2018-Jan-31 22:59N 36°48' W 076°17'0 0.0
2018-Jan-31 22:29N 36°48' W 076°17'1 0.8
2018-Jan-31 21:01N 36°49' W 076°17'0 0.0
2018-Jan-31 20:30N 36°49' W 076°17'0 0.0
2018-Jan-31 20:00N 36°49' W 076°17'0 0.0
2018-Jan-31 19:30N 36°49' W 076°17'0 0.0
2018-Jan-31 19:00N 36°49' W 076°17'0 0.0
2018-Jan-31 18:30N 36°49' W 076°17'0 0.0
2018-Jan-31 17:57N 36°49' W 076°17'0 0.0
2018-Jan-31 17:30N 36°49' W 076°17'0 0.0
2018-Jan-31 17:00N 36°49' W 076°17'0 0.0
2018-Jan-31 16:30N 36°49' W 076°17'0 0.0
2018-Jan-31 16:00N 36°49' W 076°17'0 0.0
2018-Jan-31 15:27N 36°49' W 076°17'0 0.0
2018-Jan-31 15:00N 36°49' W 076°17'0 0.0
2018-Jan-31 14:30N 36°49' W 076°17'0 0.0
2018-Jan-31 13:00N 36°49' W 076°17'0 0.0
2018-Jan-31 12:30N 36°49' W 076°17'0 0.0
2018-Jan-31 12:00N 36°49' W 076°17'1 2.5
2018-Jan-31 11:30N 36°48' W 076°17'0 0.1
2018-Jan-31 10:54N 36°48' W 076°17'0 0.0
2018-Jan-31 10:30N 36°48' W 076°17'0 0.0
2018-Jan-31 10:00N 36°48' W 076°17'0 0.0
2018-Jan-31 09:30N 36°48' W 076°17'0 0.0
2018-Jan-31 09:01N 36°48' W 076°17'0 0.0
2018-Jan-31 08:30N 36°48' W 076°17'0 0.0
2018-Jan-31 08:00N 36°48' W 076°17'0 0.0
2018-Jan-31 07:30N 36°48' W 076°17'0 0.0
2018-Jan-31 07:00N 36°48' W 076°17'0 0.0
2018-Jan-31 06:30N 36°48' W 076°17'0 0.0
2018-Jan-31 06:00N 36°48' W 076°17'0 0.0
2018-Jan-31 05:30N 36°48' W 076°17'0 0.0
2018-Jan-31 05:00N 36°48' W 076°17'0 0.0
2018-Jan-31 04:30N 36°48' W 076°17'0 0.0
2018-Jan-31 04:00N 36°48' W 076°17'0 0.0
2018-Jan-31 03:30N 36°48' W 076°17'0 0.0
2018-Jan-31 03:00N 36°48' W 076°17'0 0.0
2018-Jan-31 02:30N 36°48' W 076°17'0 0.0
2018-Jan-31 02:00N 36°48' W 076°17'0 0.0
2018-Jan-31 01:30N 36°48' W 076°17'0 0.0
2018-Jan-31 01:00N 36°48' W 076°17'0 0.0
2018-Jan-30 23:57N 36°48' W 076°17'0 0.0
2018-Jan-30 23:30N 36°48' W 076°17'0 0.0
2018-Jan-30 23:00N 36°48' W 076°17'0 0.0
2018-Jan-30 22:30N 36°48' W 076°17'0 0.0
2018-Jan-30 21:30N 36°48' W 076°17'0 0.0
2018-Jan-30 21:00N 36°48' W 076°17'0 0.0
2018-Jan-30 20:30N 36°48' W 076°17'0 0.0
2018-Jan-30 20:00N 36°48' W 076°17'0 0.0
2018-Jan-30 19:30N 36°48' W 076°17'0 0.0
2018-Jan-30 19:00N 36°48' W 076°17'0 0.0
2018-Jan-30 18:30N 36°48' W 076°17'0 0.0
2018-Jan-30 18:00N 36°48' W 076°17'0 0.0
2018-Jan-30 17:30N 36°48' W 076°17'0 0.0
2018-Jan-30 17:00N 36°48' W 076°17'0 0.0
2018-Jan-30 16:30N 36°48' W 076°17'0 0.0
2018-Jan-30 16:00N 36°48' W 076°17'0 0.0
2018-Jan-30 15:30N 36°48' W 076°17'0 0.0
2018-Jan-30 15:00N 36°48' W 076°17'0 0.0
2018-Jan-30 14:30N 36°48' W 076°17'0 0.0
2018-Jan-30 13:30N 36°48' W 076°17'0 0.0
2018-Jan-30 13:00N 36°48' W 076°17'0 0.0
2018-Jan-30 12:30N 36°48' W 076°17'0 0.0
2018-Jan-30 12:00N 36°48' W 076°17'0 0.0
2018-Jan-30 11:30N 36°48' W 076°17'0 0.0
2018-Jan-30 10:30N 36°48' W 076°17'0 0.0
2018-Jan-30 09:30N 36°48' W 076°17'0 0.0
2018-Jan-30 09:00N 36°48' W 076°17'0 0.0
2018-Jan-30 08:30N 36°48' W 076°17'0 0.0
2018-Jan-30 08:00N 36°48' W 076°17'0 0.0
2018-Jan-30 07:30N 36°48' W 076°17'0 0.0
2018-Jan-30 07:00N 36°48' W 076°17'0 0.0
2018-Jan-30 06:30N 36°48' W 076°17'0 0.0
2018-Jan-30 06:00N 36°48' W 076°17'0 0.0
2018-Jan-30 05:30N 36°48' W 076°17'0 0.0
2018-Jan-30 05:00N 36°48' W 076°17'0 0.0
2018-Jan-30 04:30N 36°48' W 076°17'0 0.0
2018-Jan-30 04:00N 36°48' W 076°17'0 0.0
2018-Jan-30 03:30N 36°48' W 076°17'0 0.0
2018-Jan-30 03:00N 36°48' W 076°17'0 0.0
2018-Jan-30 02:30N 36°48' W 076°17'0 0.0
2018-Jan-30 02:00N 36°48' W 076°17'0 0.0
2018-Jan-30 01:30N 36°48' W 076°17'0 0.0
2018-Jan-30 01:00N 36°48' W 076°17'0 0.0
2018-Jan-30 00:30N 36°48' W 076°17'0 0.0
2018-Jan-29 23:57N 36°48' W 076°17'0 0.0
2018-Jan-29 23:30N 36°48' W 076°17'0 0.0
2018-Jan-29 23:00N 36°48' W 076°17'0 0.0
2018-Jan-29 22:30N 36°48' W 076°17'0 0.0
2018-Jan-29 22:00N 36°48' W 076°17'0 0.0
2018-Jan-29 21:30N 36°48' W 076°17'0 0.0
2018-Jan-29 21:00N 36°48' W 076°17'0 0.0
2018-Jan-29 20:30N 36°48' W 076°17'0 0.0
2018-Jan-29 20:00N 36°48' W 076°17'0 0.0
2018-Jan-29 19:30N 36°48' W 076°17'0 0.0
2018-Jan-29 19:00N 36°48' W 076°17'0 0.0
2018-Jan-29 18:30N 36°48' W 076°17'0 0.0
2018-Jan-29 18:00N 36°48' W 076°17'0 0.0
2018-Jan-29 17:30N 36°48' W 076°17'0 0.0
2018-Jan-29 16:57N 36°48' W 076°17'0 0.0
2018-Jan-29 16:30N 36°48' W 076°17'0 0.0
2018-Jan-29 15:57N 36°48' W 076°17'0 0.0
2018-Jan-29 15:30N 36°48' W 076°17'0 0.0
2018-Jan-29 15:00N 36°48' W 076°17'0 0.0
2018-Jan-29 14:27N 36°48' W 076°17'0 0.0
2018-Jan-29 14:00N 36°48' W 076°17'0 0.0
2018-Jan-29 13:30N 36°48' W 076°17'0 0.0
2018-Jan-29 13:00N 36°48' W 076°17'0 0.0
2018-Jan-29 12:30N 36°48' W 076°17'0 0.0
2018-Jan-29 12:00N 36°48' W 076°17'0 0.0
2018-Jan-29 11:27N 36°48' W 076°17'0 0.0
2018-Jan-29 11:00N 36°48' W 076°17'0 0.0
2018-Jan-29 10:27N 36°48' W 076°17'0 0.0
2018-Jan-29 10:00N 36°48' W 076°17'0 0.0
2018-Jan-29 09:30N 36°48' W 076°17'0 0.0
2018-Jan-29 09:00N 36°48' W 076°17'0 0.0
2018-Jan-29 08:30N 36°48' W 076°17'0 0.0
2018-Jan-29 08:00N 36°48' W 076°17'0 0.0
2018-Jan-29 07:30N 36°48' W 076°17'0 0.0
2018-Jan-29 07:00N 36°48' W 076°17'0 0.0
2018-Jan-29 06:30N 36°48' W 076°17'0 0.0
2018-Jan-29 06:00N 36°48' W 076°17'0 0.0
2018-Jan-29 05:30N 36°48' W 076°17'0 0.0
2018-Jan-29 05:00N 36°48' W 076°17'0 0.0
2018-Jan-29 04:30N 36°48' W 076°17'0 0.0
2018-Jan-29 03:57N 36°48' W 076°17'0 0.0
2018-Jan-29 03:30N 36°48' W 076°17'0 0.0
2018-Jan-29 03:00N 36°48' W 076°17'0 0.0
2018-Jan-29 02:30N 36°48' W 076°17'0 0.0
2018-Jan-29 02:00N 36°48' W 076°17'0 0.0
2018-Jan-29 01:30N 36°48' W 076°17'0 0.0
2018-Jan-29 01:00N 36°48' W 076°17'0 0.0
2018-Jan-29 00:30N 36°48' W 076°17'0 0.0
2018-Jan-28 23:57N 36°48' W 076°17'0 0.0
2018-Jan-28 23:30N 36°48' W 076°17'0 0.0
2018-Jan-28 23:00N 36°48' W 076°17'0 0.0
2018-Jan-28 22:30N 36°48' W 076°17'0 0.0
2018-Jan-28 22:00N 36°48' W 076°17'0 0.0
2018-Jan-28 21:30N 36°48' W 076°17'0 0.0
2018-Jan-28 21:00N 36°48' W 076°17'0 0.0
2018-Jan-28 20:31N 36°48' W 076°17'0 0.0
2018-Jan-28 20:01N 36°48' W 076°17'0 0.0
2018-Jan-28 19:30N 36°48' W 076°17'0 0.0
2018-Jan-28 19:00N 36°48' W 076°17'0 0.0
2018-Jan-28 18:31N 36°48' W 076°17'0 0.0
2018-Jan-28 18:00N 36°48' W 076°17'0 0.0
2018-Jan-28 17:30N 36°48' W 076°17'0 0.0
2018-Jan-28 17:00N 36°48' W 076°17'1 1.4
2018-Jan-28 16:31N 36°49' W 076°17'2 4.2
2018-Jan-28 15:59N 36°51' W 076°18'5 6.9
2018-Jan-28 15:13N 36°56' W 076°20'9 5.5
2018-Jan-28 13:38N 36°60' W 076°11'1 9.6
2018-Jan-28 13:29N 36°59' W 076°09'5 9.7
2018-Jan-28 13:00N 36°58' W 076°03'5 9.8
2018-Jan-28 12:30N 36°57' W 075°57'6 9.9
2018-Jan-28 11:52N 36°53' W 075°51'  
2018-Jan-24 02:07N 35°14' W 075°30'0 1.1
2018-Jan-24 01:59N 35°14' W 075°30'  
Track history (hours):
 
Tides and Currents Weather Stations Pressure Air Temp Water Temp Dewpoint Dewpoint Depression Visibility Wind Speed Wind Dir Waves Ship Positions

Magdalen

Owner: Weeks Marine, Inc., Cranford, NJ. More information available from US FCC via Universal Licensing System and Coast Guard Vessel Documentation Center.

Last reported at 2018-Feb-02 01:43 UTC. Time now 2018-Feb-25 18:04 UTC.
Position N 36°51' W 075°51'.
Warning: this ship's position is 23 days out of date.

Length 83 m; draft 4.7 m.

Type: Dredging. MMSI: 369305000.

Date/timePositionNaut miles runAvg speedWind from/ knotsBaromVisibWave heightAir tempDewpointWater temp
2018-Feb-02 01:43N 36°51' W 075°51'2 9.4
2018-Feb-02 01:29N 36°52' W 075°53'5 9.7
2018-Feb-02 00:56N 36°56' W 075°58'510.7
2018-Feb-02 00:30N 36°57' W 076°03'14 8.4
2018-Feb-01 22:50N 36°56' W 076°20'5 6.3
2018-Feb-01 22:00N 36°51' W 076°18'3 5.0
2018-Feb-01 21:30N 36°48' W 076°17'1 0.3
2018-Feb-01 19:29N 36°48' W 076°17'0 0.0
2018-Feb-01 18:59N 36°48' W 076°17'0 0.0
2018-Feb-01 18:29N 36°48' W 076°17'0 0.0
2018-Feb-01 17:59N 36°48' W 076°17'0 0.0
2018-Feb-01 17:29N 36°48' W 076°17'0 0.0
2018-Feb-01 16:59N 36°48' W 076°17'0 0.0
2018-Feb-01 16:29N 36°48' W 076°17'0 0.0
2018-Feb-01 15:59N 36°48' W 076°17'0 0.0
2018-Feb-01 15:29N 36°48' W 076°17'0 0.0
2018-Feb-01 14:59N 36°48' W 076°17'0 0.0
2018-Feb-01 13:29N 36°48' W 076°17'0 0.0
2018-Feb-01 12:59N 36°48' W 076°17'0 0.0
2018-Feb-01 12:29N 36°48' W 076°17'0 0.0
2018-Feb-01 11:59N 36°48' W 076°17'0 0.0
2018-Feb-01 10:59N 36°48' W 076°17'0 0.0
2018-Feb-01 10:29N 36°48' W 076°17'0 0.0
2018-Feb-01 09:59N 36°48' W 076°17'0 0.0
2018-Feb-01 09:29N 36°48' W 076°17'0 0.0
2018-Feb-01 08:59N 36°48' W 076°17'0 0.0
2018-Feb-01 08:29N 36°48' W 076°17'0 0.0
2018-Feb-01 07:29N 36°48' W 076°17'0 0.0
2018-Feb-01 06:59N 36°48' W 076°17'0 0.0
2018-Feb-01 06:29N 36°48' W 076°17'0 0.0
2018-Feb-01 05:59N 36°48' W 076°17'0 0.0
2018-Feb-01 05:29N 36°48' W 076°17'0 0.0
2018-Feb-01 04:56N 36°48' W 076°17'0 0.0
2018-Feb-01 04:29N 36°48' W 076°17'0 0.0
2018-Feb-01 03:59N 36°48' W 076°17'0 0.0
2018-Feb-01 02:59N 36°48' W 076°17'0 0.0
2018-Feb-01 02:29N 36°48' W 076°17'0 0.0
2018-Feb-01 01:59N 36°48' W 076°17'0 0.0
2018-Feb-01 01:29N 36°48' W 076°17'0 0.0
2018-Feb-01 00:59N 36°48' W 076°17'0 0.0
2018-Feb-01 00:29N 36°48' W 076°17'0 0.0
2018-Jan-31 23:59N 36°48' W 076°17'0 0.0
2018-Jan-31 22:59N 36°48' W 076°17'0 0.0
2018-Jan-31 22:29N 36°48' W 076°17'1 0.8
2018-Jan-31 21:01N 36°49' W 076°17'0 0.0
2018-Jan-31 20:30N 36°49' W 076°17'0 0.0
2018-Jan-31 20:00N 36°49' W 076°17'0 0.0
2018-Jan-31 19:30N 36°49' W 076°17'0 0.0
2018-Jan-31 19:00N 36°49' W 076°17'0 0.0
2018-Jan-31 18:30N 36°49' W 076°17'0 0.0
2018-Jan-31 17:57N 36°49' W 076°17'0 0.0
2018-Jan-31 17:30N 36°49' W 076°17'0 0.0
2018-Jan-31 17:00N 36°49' W 076°17'0 0.0
2018-Jan-31 16:30N 36°49' W 076°17'0 0.0
2018-Jan-31 16:00N 36°49' W 076°17'0 0.0
2018-Jan-31 15:27N 36°49' W 076°17'0 0.0
2018-Jan-31 15:00N 36°49' W 076°17'0 0.0
2018-Jan-31 14:30N 36°49' W 076°17'0 0.0
2018-Jan-31 13:00N 36°49' W 076°17'0 0.0
2018-Jan-31 12:30N 36°49' W 076°17'0 0.0
2018-Jan-31 12:00N 36°49' W 076°17'1 2.5
2018-Jan-31 11:30N 36°48' W 076°17'0 0.1
2018-Jan-31 10:54N 36°48' W 076°17'0 0.0
2018-Jan-31 10:30N 36°48' W 076°17'0 0.0
2018-Jan-31 10:00N 36°48' W 076°17'0 0.0
2018-Jan-31 09:30N 36°48' W 076°17'0 0.0
2018-Jan-31 09:01N 36°48' W 076°17'0 0.0
2018-Jan-31 08:30N 36°48' W 076°17'0 0.0
2018-Jan-31 08:00N 36°48' W 076°17'0 0.0
2018-Jan-31 07:30N 36°48' W 076°17'0 0.0
2018-Jan-31 07:00N 36°48' W 076°17'0 0.0
2018-Jan-31 06:30N 36°48' W 076°17'0 0.0
2018-Jan-31 06:00N 36°48' W 076°17'0 0.0
2018-Jan-31 05:30N 36°48' W 076°17'0 0.0
2018-Jan-31 05:00N 36°48' W 076°17'0 0.0
2018-Jan-31 04:30N 36°48' W 076°17'0 0.0
2018-Jan-31 04:00N 36°48' W 076°17'0 0.0
2018-Jan-31 03:30N 36°48' W 076°17'0 0.0
2018-Jan-31 03:00N 36°48' W 076°17'0 0.0
2018-Jan-31 02:30N 36°48' W 076°17'0 0.0
2018-Jan-31 02:00N 36°48' W 076°17'0 0.0
2018-Jan-31 01:30N 36°48' W 076°17'0 0.0
2018-Jan-31 01:00N 36°48' W 076°17'0 0.0
2018-Jan-30 23:57N 36°48' W 076°17'0 0.0
2018-Jan-30 23:30N 36°48' W 076°17'0 0.0
2018-Jan-30 23:00N 36°48' W 076°17'0 0.0
2018-Jan-30 22:30N 36°48' W 076°17'0 0.0
2018-Jan-30 21:30N 36°48' W 076°17'0 0.0
2018-Jan-30 21:00N 36°48' W 076°17'0 0.0
2018-Jan-30 20:30N 36°48' W 076°17'0 0.0
2018-Jan-30 20:00N 36°48' W 076°17'0 0.0
2018-Jan-30 19:30N 36°48' W 076°17'0 0.0
2018-Jan-30 19:00N 36°48' W 076°17'0 0.0
2018-Jan-30 18:30N 36°48' W 076°17'0 0.0
2018-Jan-30 18:00N 36°48' W 076°17'0 0.0
2018-Jan-30 17:30N 36°48' W 076°17'0 0.0
2018-Jan-30 17:00N 36°48' W 076°17'0 0.0
2018-Jan-30 16:30N 36°48' W 076°17'0 0.0
2018-Jan-30 16:00N 36°48' W 076°17'0 0.0
2018-Jan-30 15:30N 36°48' W 076°17'0 0.0
2018-Jan-30 15:00N 36°48' W 076°17'0 0.0
2018-Jan-30 14:30N 36°48' W 076°17'0 0.0
2018-Jan-30 13:30N 36°48' W 076°17'0 0.0
2018-Jan-30 13:00N 36°48' W 076°17'0 0.0
2018-Jan-30 12:30N 36°48' W 076°17'0 0.0
2018-Jan-30 12:00N 36°48' W 076°17'0 0.0
2018-Jan-30 11:30N 36°48' W 076°17'0 0.0
2018-Jan-30 10:30N 36°48' W 076°17'0 0.0
2018-Jan-30 09:30N 36°48' W 076°17'0 0.0
2018-Jan-30 09:00N 36°48' W 076°17'0 0.0
2018-Jan-30 08:30N 36°48' W 076°17'0 0.0
2018-Jan-30 08:00N 36°48' W 076°17'0 0.0
2018-Jan-30 07:30N 36°48' W 076°17'0 0.0
2018-Jan-30 07:00N 36°48' W 076°17'0 0.0
2018-Jan-30 06:30N 36°48' W 076°17'0 0.0
2018-Jan-30 06:00N 36°48' W 076°17'0 0.0
2018-Jan-30 05:30N 36°48' W 076°17'0 0.0
2018-Jan-30 05:00N 36°48' W 076°17'0 0.0
2018-Jan-30 04:30N 36°48' W 076°17'0 0.0
2018-Jan-30 04:00N 36°48' W 076°17'0 0.0
2018-Jan-30 03:30N 36°48' W 076°17'0 0.0
2018-Jan-30 03:00N 36°48' W 076°17'0 0.0
2018-Jan-30 02:30N 36°48' W 076°17'0 0.0
2018-Jan-30 02:00N 36°48' W 076°17'0 0.0
2018-Jan-30 01:30N 36°48' W 076°17'0 0.0
2018-Jan-30 01:00N 36°48' W 076°17'0 0.0
2018-Jan-30 00:30N 36°48' W 076°17'0 0.0
2018-Jan-29 23:57N 36°48' W 076°17'0 0.0
2018-Jan-29 23:30N 36°48' W 076°17'0 0.0
2018-Jan-29 23:00N 36°48' W 076°17'0 0.0
2018-Jan-29 22:30N 36°48' W 076°17'0 0.0
2018-Jan-29 22:00N 36°48' W 076°17'0 0.0
2018-Jan-29 21:30N 36°48' W 076°17'0 0.0
2018-Jan-29 21:00N 36°48' W 076°17'0 0.0
2018-Jan-29 20:30N 36°48' W 076°17'0 0.0
2018-Jan-29 20:00N 36°48' W 076°17'0 0.0
2018-Jan-29 19:30N 36°48' W 076°17'0 0.0
2018-Jan-29 19:00N 36°48' W 076°17'0 0.0
2018-Jan-29 18:30N 36°48' W 076°17'0 0.0
2018-Jan-29 18:00N 36°48' W 076°17'0 0.0
2018-Jan-29 17:30N 36°48' W 076°17'0 0.0
2018-Jan-29 16:57N 36°48' W 076°17'0 0.0
2018-Jan-29 16:30N 36°48' W 076°17'0 0.0
2018-Jan-29 15:57N 36°48' W 076°17'0 0.0
2018-Jan-29 15:30N 36°48' W 076°17'0 0.0
2018-Jan-29 15:00N 36°48' W 076°17'0 0.0
2018-Jan-29 14:27N 36°48' W 076°17'0 0.0
2018-Jan-29 14:00N 36°48' W 076°17'0 0.0
2018-Jan-29 13:30N 36°48' W 076°17'0 0.0
2018-Jan-29 13:00N 36°48' W 076°17'0 0.0
2018-Jan-29 12:30N 36°48' W 076°17'0 0.0
2018-Jan-29 12:00N 36°48' W 076°17'0 0.0
2018-Jan-29 11:27N 36°48' W 076°17'0 0.0
2018-Jan-29 11:00N 36°48' W 076°17'0 0.0
2018-Jan-29 10:27N 36°48' W 076°17'0 0.0
2018-Jan-29 10:00N 36°48' W 076°17'0 0.0
2018-Jan-29 09:30N 36°48' W 076°17'0 0.0
2018-Jan-29 09:00N 36°48' W 076°17'0 0.0
2018-Jan-29 08:30N 36°48' W 076°17'0 0.0
2018-Jan-29 08:00N 36°48' W 076°17'0 0.0
2018-Jan-29 07:30N 36°48' W 076°17'0 0.0
2018-Jan-29 07:00N 36°48' W 076°17'0 0.0
2018-Jan-29 06:30N 36°48' W 076°17'0 0.0
2018-Jan-29 06:00N 36°48' W 076°17'0 0.0
2018-Jan-29 05:30N 36°48' W 076°17'0 0.0
2018-Jan-29 05:00N 36°48' W 076°17'0 0.0
2018-Jan-29 04:30N 36°48' W 076°17'0 0.0
2018-Jan-29 03:57N 36°48' W 076°17'0 0.0
2018-Jan-29 03:30N 36°48' W 076°17'0 0.0
2018-Jan-29 03:00N 36°48' W 076°17'0 0.0
2018-Jan-29 02:30N 36°48' W 076°17'0 0.0
2018-Jan-29 02:00N 36°48' W 076°17'0 0.0
2018-Jan-29 01:30N 36°48' W 076°17'0 0.0
2018-Jan-29 01:00N 36°48' W 076°17'0 0.0
2018-Jan-29 00:30N 36°48' W 076°17'0 0.0
2018-Jan-28 23:57N 36°48' W 076°17'0 0.0
2018-Jan-28 23:30N 36°48' W 076°17'0 0.0
2018-Jan-28 23:00N 36°48' W 076°17'0 0.0
2018-Jan-28 22:30N 36°48' W 076°17'0 0.0
2018-Jan-28 22:00N 36°48' W 076°17'0 0.0
2018-Jan-28 21:30N 36°48' W 076°17'0 0.0
2018-Jan-28 21:00N 36°48' W 076°17'0 0.0
2018-Jan-28 20:31N 36°48' W 076°17'0 0.0
2018-Jan-28 20:01N 36°48' W 076°17'0 0.0
2018-Jan-28 19:30N 36°48' W 076°17'0 0.0
2018-Jan-28 19:00N 36°48' W 076°17'0 0.0
2018-Jan-28 18:31N 36°48' W 076°17'0 0.0
2018-Jan-28 18:00N 36°48' W 076°17'0 0.0
2018-Jan-28 17:30N 36°48' W 076°17'0 0.0
2018-Jan-28 17:00N 36°48' W 076°17'1 1.4
2018-Jan-28 16:31N 36°49' W 076°17'2 4.2
2018-Jan-28 15:59N 36°51' W 076°18'5 6.9
2018-Jan-28 15:13N 36°56' W 076°20'9 5.5
2018-Jan-28 13:38N 36°60' W 076°11'1 9.6
2018-Jan-28 13:29N 36°59' W 076°09'5 9.7
2018-Jan-28 13:00N 36°58' W 076°03'5 9.8
2018-Jan-28 12:30N 36°57' W 075°57'6 9.9
2018-Jan-28 11:52N 36°53' W 075°51'  
2018-Jan-24 02:07N 35°14' W 075°30'0 1.1
2018-Jan-24 01:59N 35°14' W 075°30'  

Dump ship's entire track history